Flight Track Log - Related Links

Times and Time Zones

All times are in EDT time to prevent confusion due to time zone crossing. See the CPT8773 flight status page for this flight to view local times or setup timezone preferences in your user account.

Time Position Orientation Groundspeed Altitude Reporting Facility
EDT Latitude Longitude Course Direction KTS MPH feet Rate Location/Type
Wed 09:45:15 AM 42.9858 -106.4764 307° West 116 133 7,800  Level Denver Center
Wed 09:46:16 AM 43.0206 -106.4928 341° North 118 136 8,800 829 Climbing Denver Center
Wed 09:47:18 AM 43.0511 -106.5042 345° North 118 136 9,500 683 Climbing Denver Center
Wed 09:48:19 AM 43.0819 -106.5175 342° North 120 138 10,200 738 Climbing Denver Center
Wed 09:49:00 AM 43.1730 -106.4447 307° West  Level FlightAware Approximate
Wed 09:49:20 AM 43.1183 -106.5350 341° North 122 140 11,000  Level Denver Center
Wed 09:50:00 AM 43.1988 -106.4915 307° West  Level FlightAware Approximate
Wed 09:50:21 AM 43.1483 -106.5508 339° North 123 142 11,600  Level Denver Center
Wed 09:51:22 AM 43.1833 -106.5661 342° North 135 155 12,000 197 Climbing Denver Center
Wed 09:52:23 AM 43.2311 -106.5797 348° North 152 175 12,000  Level Denver Center
Wed 09:53:24 AM 43.2706 -106.6089 332° Northwest 172 198 12,000  Level Denver Center
Wed 09:54:26 AM 43.2983 -106.6728 301° West 174 200 12,000  Level Denver Center
Wed 09:55:27 AM 43.3244 -106.7228 306° West 170 196 12,000  Level Denver Center
Wed 09:56:28 AM 43.3522 -106.7722 308° West 172 198 12,000  Level Denver Center
Wed 09:57:29 AM 43.3817 -106.8322 304° West 170 196 12,000  Level Denver Center
Wed 09:58:30 AM 43.4103 -106.8869 306° West 172 198 12,000  Level Denver Center
Wed 09:59:31 AM 43.4375 -106.9369 307° West 171 197 12,000  Level Denver Center
Wed 10:00:33 AM 43.4642 -106.9883 306° West 173 199 12,000  Level Denver Center
Wed 10:01:34 AM 43.4956 -107.0481 306° West 173 199 12,000  Level Denver Center
Wed 10:02:35 AM 43.5231 -107.0989 307° West 173 199 12,000 47 Level Denver Center
Wed 10:03:41 AM 43.5531 -107.1603 304° West 171 197 12,100  Climbing Salt Lake Center
Wed 10:05:39 AM 43.6061 -107.2581 307° West 168 193 12,000  Descending Denver Center
Wed 10:06:52 AM 43.6378 -107.3142 308° West 167 192 12,100 47 Climbing Denver Center
Wed 10:07:47 AM 43.6658 -107.3728 304° West 165 190 12,100  Level Salt Lake Center
Wed 10:08:48 AM 43.6900 -107.4222 304° West 163 188 12,100  Level Salt Lake Center
Wed 10:09:49 AM 43.7150 -107.4706 306° West 163 188 12,100  Level Salt Lake Center
Wed 10:10:51 AM 43.7444 -107.5267 306° West 162 186 12,100  Level Salt Lake Center
Wed 10:11:52 AM 43.7686 -107.5756 304° West 161 185 12,100  Level Salt Lake Center
Wed 10:12:53 AM 43.7975 -107.6333 305° West 162 186 12,100  Level Salt Lake Center
Wed 10:13:54 AM 43.8233 -107.6803 307° West 161 185 12,100  Level Salt Lake Center
Wed 10:14:56 AM 43.8478 -107.7286 305° West 161 185 12,100  Level Salt Lake Center
Wed 10:15:57 AM 43.8764 -107.7856 305° West 161 185 12,100  Level Salt Lake Center
Wed 10:16:58 AM 43.9014 -107.8353 305° West 162 186 12,100 -49 Level Salt Lake Center
Wed 10:18:00 AM 43.9258 -107.8819 306° West 160 184 12,000 -49 Descending Salt Lake Center
Wed 10:19:01 AM 43.9550 -107.9394 305° West 160 184 12,000 49 Level Salt Lake Center
Wed 10:20:02 AM 43.9825 -107.9858 309° West 162 186 12,100 49 Climbing Salt Lake Center
Wed 10:21:04 AM 44.0167 -108.0361 313° West 161 185 12,100  Level Salt Lake Center
Wed 10:22:05 AM 44.0461 -108.0797 313° West 161 185 12,100  Level Salt Lake Center
Wed 10:23:06 AM 44.0769 -108.1217 316° Northwest 162 186 12,100 -49 Level Salt Lake Center
Wed 10:24:08 AM 44.1164 -108.1642 322° Northwest 161 185 12,000 -49 Descending Salt Lake Center
Wed 10:25:09 AM 44.1528 -108.2011 324° Northwest 164 189 12,000  Level Salt Lake Center
Wed 10:26:11 AM 44.1931 -108.2464 321° Northwest 166 191 12,000  Level Salt Lake Center
Wed 10:27:12 AM 44.2283 -108.2856 322° Northwest 168 193 12,000  Level Salt Lake Center
Wed 10:28:13 AM 44.2633 -108.3244 321° Northwest 168 193 12,000  Level Salt Lake Center
Wed 10:29:15 AM 44.3044 -108.3700 322° Northwest 168 193 12,000  Level Salt Lake Center
Wed 10:30:16 AM 44.3389 -108.4097 320° Northwest 168 193 12,000  Level Salt Lake Center
Wed 10:31:18 AM 44.3742 -108.4475 323° Northwest 167 192 12,000  Level Salt Lake Center
Wed 10:32:19 AM 44.4139 -108.4919 321° Northwest 165 190 12,000  Level Salt Lake Center
Wed 10:33:20 AM 44.4475 -108.5297 321° Northwest 164 189 12,000  Level Salt Lake Center
Wed 10:34:22 AM 44.4875 -108.5739 322° Northwest 163 188 12,000  Level Salt Lake Center
Wed 10:35:23 AM 44.5225 -108.6111 323° Northwest 164 189 12,000 -439 Level Salt Lake Center
Wed 10:36:25 AM 44.5578 -108.6506 321° Northwest 166 191 11,100 -976 Descending Salt Lake Center
Wed 10:37:26 AM 44.5986 -108.6958 322° Northwest 167 192 10,000 -1,073 Descending Salt Lake Center
Wed 10:38:28 AM 44.6344 -108.7317 325° Northwest 166 191 8,900 -1,024 Descending Salt Lake Center
Wed 10:39:29 AM 44.6469 -108.7822 289° West 158 182 7,900 -683 Descending Salt Lake Center
Wed 10:40:31 AM 44.6286 -108.8328 243° Southwest 155 178 7,500 -195 Descending Salt Lake Center
Wed 10:41:32 AM 44.6022 -108.8794 232° Southwest 155 178 7,500 -341 Level Salt Lake Center
Wed 10:42:34 AM 44.5739 -108.9308 232° Southwest 152 175 6,800 -677 Descending Salt Lake Center

Login

Don't have an account? Register now (free) for customized features, flight alerts, and more!